Time;durP1;ratioP1;P1;durP2;ratioP2;P2;SDS_P1;SDS_P2;PMS_P1;PMS_P2;Temp;Humidity;BMP_temperature;BMP_pressure;BME280_temperature;BME280_humidity;BME280_pressure;Samples;Min_cycle;Max_cycle;Signal;HPM_P1;HPM_P2
2021/12/25 00:02:22;;;;;;;12.38;0.60;;;-1.80;99.90;;;;;;4986597;28;20083;-74
2021/12/25 00:04:48;;;;;;;1.48;0.22;;;-1.90;99.90;;;;;;5001298;28;20034;-74
2021/12/25 00:07:13;;;;;;;0.25;0.10;;;-1.90;99.90;;;;;;4986008;28;20053;-74
2021/12/25 00:09:39;;;;;;;0.10;0.05;;;-2.00;99.90;;;;;;4986136;28;20077;-74
2021/12/25 00:12:05;;;;;;;1.88;0.55;;;-2.00;99.90;;;;;;4985749;28;20483;-73
2021/12/25 00:14:30;;;;;;;0.43;0.10;;;-2.00;99.90;;;;;;4985831;28;20053;-73
2021/12/25 00:16:58;;;;;;;0.38;0.15;;;-2.10;99.90;;;;;;4985753;28;20019;-74
2021/12/25 00:19:25;;;;;;;0.50;0.20;;;-2.10;99.90;;;;;;4986409;28;20053;-76
2021/12/25 00:21:50;;;;;;;0.10;0.10;;;-2.10;99.90;;;;;;4985681;28;20038;-73
2021/12/25 00:24:16;;;;;;;1.55;0.28;;;-2.10;99.90;;;;;;4985983;28;20458;-73
2021/12/25 00:32:29;;;;;;;0.20;0.20;;;-2.20;99.90;;;;;;4986205;28;20038;-73
2021/12/25 00:34:54;;;;;;;0.45;0.10;;;-2.20;99.90;;;;;;5000512;28;20030;-74
2021/12/25 00:37:20;;;;;;;0.63;0.32;;;-2.30;99.90;;;;;;4985734;28;20083;-73
2021/12/25 00:39:46;;;;;;;1.58;0.30;;;-2.30;99.90;;;;;;4985973;28;20035;-73
2021/12/25 00:42:12;;;;;;;0.10;0.10;;;-2.30;99.90;;;;;;4985518;28;20022;-73
2021/12/25 00:44:38;;;;;;;0.98;0.40;;;-2.20;99.90;;;;;;5000631;28;20027;-73
2021/12/25 00:47:05;;;;;;;0.15;0.13;;;-2.20;99.90;;;;;;4985819;28;20066;-74
2021/12/25 00:49:31;;;;;;;0.20;0.17;;;-2.20;99.90;;;;;;4985269;28;20026;-74
2021/12/25 00:51:57;;;;;;;0.38;0.10;;;-2.30;99.90;;;;;;4989637;28;20030;-74
2021/12/25 00:54:23;;;;;;;0.20;0.20;;;-2.40;99.90;;;;;;4989752;28;20058;-73
2021/12/25 00:56:49;;;;;;;0.15;0.15;;;-2.40;99.90;;;;;;4989169;28;20054;-73
2021/12/25 00:59:15;;;;;;;0.15;0.15;;;-2.40;99.90;;;;;;4989705;28;20034;-73
2021/12/25 01:01:41;;;;;;;0.10;0.10;;;-2.50;99.90;;;;;;4989404;28;20054;-73
2021/12/25 01:04:07;;;;;;;1.85;0.52;;;-2.50;99.90;;;;;;4988588;28;20037;-73
2021/12/25 01:06:32;;;;;;;0.10;0.10;;;-2.50;99.90;;;;;;4989225;28;20039;-73
2021/12/25 01:08:59;;;;;;;0.65;0.22;;;-2.50;99.90;;;;;;4989218;28;20077;-74
2021/12/25 01:11:27;;;;;;;0.10;0.10;;;-2.60;99.90;;;;;;4988970;28;20051;-74
2021/12/25 01:14:04;;;;;;;2.35;0.35;;;-2.60;99.90;;;;;;5004513;28;20402;-73
2021/12/25 01:24:50;;;;;;;0.35;0.22;;;-1.30;99.90;;;;;;4988841;28;20027;-74
2021/12/25 01:27:48;;;;;;;3.30;0.43;;;-1.50;99.90;;;;;;5003903;28;20054;-74
2021/12/25 01:48:03;;;;;;;2.53;0.32;;;-2.60;99.90;;;;;;4988676;28;20061;-73
2021/12/25 01:50:30;;;;;;;2.55;0.32;;;-2.70;99.90;;;;;;4988974;28;20459;-73
2021/12/25 01:53:06;;;;;;;1.65;0.20;;;-2.70;99.90;;;;;;4988442;28;20023;-73
2021/12/25 01:55:31;;;;;;;1.98;0.13;;;-2.70;99.90;;;;;;4988811;28;20054;-72
2021/12/25 01:58:01;;;;;;;0.30;0.20;;;-2.80;99.90;;;;;;4988560;28;20046;-73
2021/12/25 02:00:47;;;;;;;0.20;0.13;;;-2.90;99.90;;;;;;4988113;28;20090;-74
2021/12/25 02:03:15;;;;;;;0.68;0.17;;;-2.90;99.90;;;;;;4987858;28;20042;-73
2021/12/25 02:05:41;;;;;;;2.17;0.38;;;-2.90;99.90;;;;;;4988190;28;20027;-73
2021/12/25 02:08:07;;;;;;;1.20;0.52;;;-2.90;99.90;;;;;;5003229;28;20030;-73
2021/12/25 02:10:33;;;;;;;2.35;0.45;;;-3.00;99.90;;;;;;4988311;28;20073;-74
2021/12/25 02:13:03;;;;;;;1.58;0.70;;;-3.00;99.90;;;;;;4987915;28;20066;-74
2021/12/25 02:15:31;;;;;;;7.10;0.30;;;-3.10;99.90;;;;;;5003096;28;20027;-75
2021/12/25 02:20:37;;;;;;;4.93;0.30;;;-3.10;99.90;;;;;;4987896;28;20042;-74
2021/12/25 02:23:11;;;;;;;;;;;-3.20;99.90;;;;;;4987918;28;20026;-74
2021/12/25 02:25:37;;;;;;;0.30;0.22;;;-3.20;99.90;;;;;;4988037;28;19910;-73
2021/12/25 02:28:05;;;;;;;0.30;0.10;;;-3.20;99.90;;;;;;4987673;28;20034;-74
2021/12/25 02:30:31;;;;;;;0.32;0.20;;;-3.20;99.90;;;;;;4987902;28;20082;-74
2021/12/25 02:32:58;;;;;;;0.90;0.22;;;-3.20;99.90;;;;;;5002931;28;20153;-75
2021/12/25 02:35:25;;;;;;;1.05;0.50;;;-3.30;99.90;;;;;;4987595;28;20487;-75
2021/12/25 02:37:52;;;;;;;1.05;0.30;;;-3.30;99.90;;;;;;4987938;28;20042;-74
2021/12/25 02:40:19;;;;;;;1.20;0.52;;;-3.30;99.90;;;;;;5002829;28;20062;-72
2021/12/25 02:42:45;;;;;;;1.02;0.30;;;-3.40;99.90;;;;;;4987106;28;20037;-74
2021/12/25 02:45:16;;;;;;;0.25;0.25;;;-3.40;99.90;;;;;;4987813;28;20035;-73
2021/12/25 02:47:47;;;;;;;0.30;0.28;;;-3.40;99.90;;;;;;4987877;28;20030;-74
2021/12/25 02:50:32;;;;;;;0.10;0.10;;;-3.40;99.90;;;;;;4987189;28;20023;-73
2021/12/25 02:53:00;;;;;;;8.18;0.63;;;-3.40;99.90;;;;;;4987601;28;20042;-73
2021/12/25 02:55:27;;;;;;;1.33;0.60;;;-3.40;99.90;;;;;;4987387;28;20399;-73
2021/12/25 02:57:56;;;;;;;4.22;0.73;;;-3.40;99.90;;;;;;4987348;28;20066;-73
2021/12/25 03:00:26;;;;;;;2.38;0.30;;;-3.50;99.90;;;;;;4987777;28;20027;-73
2021/12/25 03:02:51;;;;;;;0.15;0.15;;;-3.50;99.90;;;;;;4987285;28;20026;-74
2021/12/25 03:05:17;;;;;;;0.77;0.20;;;-3.50;99.90;;;;;;4987182;28;20031;-74
2021/12/25 03:07:44;;;;;;;0.20;0.20;;;-3.50;99.90;;;;;;5002024;28;20031;-74
2021/12/25 03:10:11;;;;;;;1.95;0.90;;;-3.50;99.90;;;;;;4986883;28;20031;-74
2021/12/25 03:12:48;;;;;;;1.48;0.50;;;-3.50;99.90;;;;;;4986811;28;20451;-74
2021/12/25 03:15:25;;;;;;;0.90;0.60;;;-3.60;99.90;;;;;;4986244;28;20026;-73
2021/12/25 03:17:51;;;;;;;3.15;0.88;;;-3.60;99.90;;;;;;4986989;28;20053;-73
2021/12/25 03:20:17;;;;;;;1.08;0.52;;;-3.60;99.90;;;;;;4987281;28;20460;-73
2021/12/25 03:22:42;;;;;;;0.60;0.45;;;-3.70;99.90;;;;;;4986284;28;20113;-73
2021/12/25 03:25:12;;;;;;;1.17;0.50;;;-3.60;99.90;;;;;;4986906;28;20033;-73
2021/12/25 03:27:42;;;;;;;0.40;0.28;;;-3.60;99.90;;;;;;4986600;28;20047;-73
2021/12/25 03:30:09;;;;;;;3.72;0.43;;;-3.60;99.90;;;;;;4986266;28;20116;-73
2021/12/25 03:32:35;;;;;;;0.75;0.35;;;-3.70;99.90;;;;;;4986782;28;20130;-72
2021/12/25 03:35:01;;;;;;;0.60;0.40;;;-3.70;99.90;;;;;;4986887;28;20022;-74
2021/12/25 03:37:27;;;;;;;0.40;0.40;;;-3.70;99.90;;;;;;4986322;28;20100;-73
2021/12/25 03:39:53;;;;;;;9.35;0.40;;;-3.80;99.90;;;;;;4986958;28;20030;-73
2021/12/25 03:42:19;;;;;;;0.85;0.52;;;-3.80;99.90;;;;;;4986871;28;20035;-73
2021/12/25 03:44:45;;;;;;;1.73;0.38;;;-3.80;99.90;;;;;;4986065;28;20031;-74
2021/12/25 03:47:26;;;;;;;1.38;0.43;;;-3.80;99.90;;;;;;5001573;28;20062;-73
2021/12/25 03:53:25;;;;;;;3.90;0.55;;;-3.80;99.90;;;;;;4992480;28;20043;-74
2021/12/25 03:58:30;;;;;;;1.73;0.55;;;-3.80;99.90;;;;;;4986148;28;20070;-74
2021/12/25 04:01:01;;;;;;;0.85;0.40;;;-3.90;99.90;;;;;;5001368;28;20133;-73
2021/12/25 04:03:42;;;;;;;0.68;0.38;;;-3.90;99.90;;;;;;5001240;28;20114;-73
2021/12/25 04:06:10;;;;;;;2.22;0.43;;;-3.90;99.90;;;;;;5000711;28;20126;-72
2021/12/25 04:08:42;;;;;;;4.32;0.77;;;-3.90;99.90;;;;;;4986252;28;20026;-74
2021/12/25 04:11:13;;;;;;;0.60;0.40;;;-4.00;99.90;;;;;;4986050;28;20027;-73
2021/12/25 04:13:39;;;;;;;0.50;0.30;;;-4.00;99.90;;;;;;4985958;28;20093;-71
2021/12/25 04:16:05;;;;;;;0.40;0.40;;;-4.00;99.90;;;;;;4986064;28;20023;-73
2021/12/25 04:18:30;;;;;;;1.02;0.93;;;-4.00;99.90;;;;;;4985853;28;20042;-73
2021/12/25 04:21:05;;;;;;;0.73;0.40;;;-4.10;99.90;;;;;;4986057;28;20479;-73
2021/12/25 04:23:31;;;;;;;7.80;0.45;;;-4.00;99.90;;;;;;4986138;28;20034;-73
2021/12/25 04:25:59;;;;;;;0.63;0.30;;;-4.10;99.90;;;;;;5000536;28;20069;-73
2021/12/25 04:28:38;;;;;;;1.13;0.45;;;-4.10;99.90;;;;;;4985842;28;20091;-74
2021/12/25 05:01:42;;;;;;;1.67;0.65;;;-4.20;99.90;;;;;;4985952;28;20094;-74
2021/12/25 05:04:13;;;;;;;;;;;-4.20;99.90;;;;;;4986270;28;20045;-74
2021/12/25 05:06:38;;;;;;;1.10;0.50;;;-4.30;99.90;;;;;;4985530;28;19906;-74
2021/12/25 05:09:04;;;;;;;3.03;0.88;;;-4.30;99.90;;;;;;4985272;28;20078;-73
2021/12/25 05:11:31;;;;;;;0.82;0.70;;;-4.30;99.90;;;;;;4985612;28;20061;-74
2021/12/25 05:13:57;;;;;;;0.82;0.38;;;-4.30;99.90;;;;;;5000276;28;20041;-74
2021/12/25 05:16:23;;;;;;;1.02;0.40;;;-4.30;99.90;;;;;;4985419;28;20118;-74
2021/12/25 05:18:52;;;;;;;0.50;0.32;;;-4.30;99.90;;;;;;5000375;28;20050;-74
2021/12/25 05:21:18;;;;;;;0.75;0.40;;;-4.40;99.90;;;;;;4985194;28;20487;-73
2021/12/25 05:23:45;;;;;;;5.93;0.57;;;-4.40;99.90;;;;;;4985581;28;20027;-72
2021/12/25 05:26:11;;;;;;;2.65;0.80;;;-4.40;99.90;;;;;;4985545;28;20030;-72
2021/12/25 05:28:42;;;;;;;0.98;0.75;;;-4.40;99.90;;;;;;4985106;28;20410;-72
2021/12/25 05:31:11;;;;;;;3.28;1.30;;;-4.40;99.90;;;;;;4985293;28;20037;-73
2021/12/25 05:33:37;;;;;;;1.83;0.57;;;-4.40;99.90;;;;;;4985214;28;20041;-73
2021/12/25 05:36:04;;;;;;;1.35;0.45;;;-4.40;99.90;;;;;;4999799;28;20059;-72
2021/12/25 05:38:30;;;;;;;1.80;0.88;;;-4.40;99.90;;;;;;4988335;28;20030;-73
2021/12/25 05:40:56;;;;;;;2.15;0.95;;;-4.50;99.90;;;;;;4989140;28;20042;-74
2021/12/25 05:43:22;;;;;;;3.42;0.80;;;-4.40;99.90;;;;;;4988798;28;20026;-73
2021/12/25 05:45:48;;;;;;;5.68;1.00;;;-4.40;99.90;;;;;;4988591;28;20037;-74
2021/12/25 05:48:14;;;;;;;0.82;0.52;;;-4.40;99.90;;;;;;4988887;28;20086;-74
2021/12/25 05:50:39;;;;;;;1.25;0.65;;;-4.50;99.90;;;;;;4988490;28;20038;-74
2021/12/25 05:53:05;;;;;;;1.60;0.70;;;-4.50;99.90;;;;;;4988599;28;20031;-73
2021/12/25 05:55:33;;;;;;;6.15;2.28;;;-4.50;99.90;;;;;;4988780;28;20394;-73
2021/12/25 05:58:00;;;;;;;5.80;0.70;;;-4.50;99.90;;;;;;4988324;28;20049;-75
2021/12/25 06:00:26;;;;;;;0.57;0.45;;;-4.50;99.90;;;;;;4988580;28;20027;-75
2021/12/25 06:02:52;;;;;;;7.10;0.90;;;-4.60;99.90;;;;;;4988787;28;20037;-73
2021/12/25 06:05:18;;;;;;;4.65;0.60;;;-4.60;99.90;;;;;;4988228;28;20403;-72
2021/12/25 06:07:53;;;;;;;0.95;0.63;;;-4.60;99.90;;;;;;4988232;28;20030;-72
2021/12/25 06:10:26;;;;;;;0.13;0.13;;;-4.60;99.90;;;;;;4988141;28;20034;-72
2021/12/25 06:12:55;;;;;;;5.00;0.90;;;-4.60;99.90;;;;;;4987943;28;20054;-73
2021/12/25 06:15:21;;;;;;;1.27;0.65;;;-4.60;99.90;;;;;;4988382;28;20066;-73
2021/12/25 06:17:47;;;;;;;1.33;0.57;;;-4.60;99.90;;;;;;4987943;28;20039;-73
2021/12/25 06:20:13;;;;;;;1.25;0.60;;;-4.60;99.90;;;;;;4986250;28;20031;-73
2021/12/25 06:22:39;;;;;;;3.28;0.50;;;-4.60;99.90;;;;;;4988081;28;20031;-73
2021/12/25 06:25:06;;;;;;;1.00;0.40;;;-4.60;99.90;;;;;;4988104;28;20548;-73
2021/12/25 06:27:32;;;;;;;1.05;0.50;;;-4.60;99.90;;;;;;4987609;28;20030;-73
2021/12/25 06:30:01;;;;;;;4.80;0.80;;;-4.60;99.90;;;;;;4987980;28;20023;-74
2021/12/25 06:32:27;;;;;;;2.25;0.68;;;-4.60;99.90;;;;;;4987775;28;20054;-73
2021/12/25 06:34:53;;;;;;;1.23;0.80;;;-4.60;99.90;;;;;;4988036;28;20098;-72
2021/12/25 06:37:19;;;;;;;1.15;0.43;;;-4.60;99.90;;;;;;4987788;28;20082;-72
2021/12/25 06:39:46;;;;;;;0.70;0.43;;;-4.60;99.90;;;;;;4985468;28;20082;-73
2021/12/25 06:42:17;;;;;;;1.20;0.57;;;-4.60;99.90;;;;;;5002021;28;20030;-74
2021/12/25 06:44:44;;;;;;;1.40;0.52;;;-4.70;99.90;;;;;;4977803;28;20027;-72
2021/12/25 06:47:09;;;;;;;1.52;0.73;;;-4.70;99.90;;;;;;4993600;28;20095;-74
2021/12/25 06:49:35;;;;;;;2.10;0.55;;;-4.70;99.90;;;;;;4977576;28;20027;-72
2021/12/25 06:52:01;;;;;;;0.85;0.30;;;-4.70;99.90;;;;;;4977064;28;20077;-74
2021/12/25 06:54:27;;;;;;;1.27;0.98;;;-4.70;99.90;;;;;;4999609;28;20050;-74
2021/12/25 06:56:53;;;;;;;1.13;0.82;;;-4.70;99.90;;;;;;4973108;28;20047;-73
2021/12/25 06:59:21;;;;;;;9.18;1.10;;;-4.70;99.90;;;;;;4991460;28;20121;-73
2021/12/25 07:01:48;;;;;;;6.32;0.70;;;-4.70;99.90;;;;;;4980458;28;20036;-73
2021/12/25 07:04:13;;;;;;;7.40;0.68;;;-4.60;99.90;;;;;;4997816;28;20019;-73
2021/12/25 07:06:40;;;;;;;1.83;0.60;;;-4.60;99.90;;;;;;5001387;28;20026;-74
2021/12/25 07:09:06;;;;;;;1.23;0.50;;;-4.60;99.90;;;;;;4984940;28;20027;-73
2021/12/25 07:11:33;;;;;;;2.58;0.70;;;-4.70;99.90;;;;;;4985787;28;20030;-73
2021/12/25 07:14:02;;;;;;;1.48;0.80;;;-4.60;99.90;;;;;;4974862;28;20046;-73
2021/12/25 07:16:27;;;;;;;1.50;0.82;;;-4.60;99.90;;;;;;4987443;28;20067;-73
2021/12/25 07:18:54;;;;;;;1.30;0.47;;;-4.60;99.90;;;;;;4975343;28;20043;-73
2021/12/25 07:21:19;;;;;;;1.25;0.35;;;-4.60;99.90;;;;;;4985968;28;20492;-72
2021/12/25 07:23:45;;;;;;;2.10;0.68;;;-4.60;99.90;;;;;;5001260;28;20086;-73
2021/12/25 07:26:10;;;;;;;1.60;0.80;;;-4.60;99.90;;;;;;5001589;28;20050;-73
2021/12/25 07:28:36;;;;;;;1.70;0.80;;;-4.60;99.90;;;;;;5000946;28;20026;-73
2021/12/25 07:31:03;;;;;;;1.65;0.55;;;-4.60;99.90;;;;;;4986131;28;20073;-74
2021/12/25 07:33:30;;;;;;;2.80;1.00;;;-4.60;99.90;;;;;;4986808;28;20037;-74
2021/12/25 07:35:56;;;;;;;1.77;0.57;;;-4.60;99.90;;;;;;4986673;28;20027;-73
2021/12/25 07:38:23;;;;;;;2.92;1.02;;;-4.60;99.90;;;;;;4985519;28;20069;-73
2021/12/25 07:40:48;;;;;;;0.88;0.60;;;-4.60;99.90;;;;;;4986409;28;20054;-72
2021/12/25 07:43:15;;;;;;;1.65;0.77;;;-4.70;99.90;;;;;;4979209;28;20039;-72
2021/12/25 07:45:41;;;;;;;1.38;0.80;;;-4.60;99.90;;;;;;4967114;28;20030;-74
2021/12/25 07:48:07;;;;;;;4.95;1.08;;;-4.60;99.90;;;;;;4967800;28;20032;-73
2021/12/25 07:50:35;;;;;;;3.22;0.70;;;-4.60;99.90;;;;;;4998880;28;20033;-74
2021/12/25 07:53:01;;;;;;;3.60;0.90;;;-4.60;99.90;;;;;;4985985;28;20110;-74
2021/12/25 07:55:29;;;;;;;2.20;1.15;;;-4.60;99.90;;;;;;4984917;28;20035;-73
2021/12/25 07:57:56;;;;;;;1.38;1.00;;;-4.60;99.90;;;;;;4966640;28;20046;-74
2021/12/25 08:00:33;;;;;;;2.90;1.00;;;-4.60;99.90;;;;;;4970334;28;20082;-74
2021/12/25 08:02:59;;;;;;;5.80;1.45;;;-4.60;99.90;;;;;;4986090;28;20023;-74
2021/12/25 08:05:24;;;;;;;5.07;1.08;;;-4.60;99.90;;;;;;4995009;28;20031;-74
2021/12/25 08:07:50;;;;;;;2.92;1.20;;;-4.60;99.90;;;;;;4985639;28;20095;-73
2021/12/25 08:10:20;;;;;;;1.13;1.00;;;-4.50;99.90;;;;;;5000033;28;20031;-73
2021/12/25 08:12:49;;;;;;;2.05;0.90;;;-4.50;99.90;;;;;;4984765;28;20047;-73
2021/12/25 08:15:17;;;;;;;2.45;1.15;;;-4.40;99.90;;;;;;4983015;28;20027;-73
2021/12/25 08:17:44;;;;;;;3.10;1.42;;;-4.10;99.90;;;;;;5000432;28;20078;-73
2021/12/25 08:20:10;;;;;;;2.47;1.25;;;-3.70;99.90;;;;;;4999286;28;20063;-73
2021/12/25 08:22:36;;;;;;;1.60;1.10;;;-3.30;99.90;;;;;;4988345;28;20221;-74
2021/12/25 08:25:06;;;;;;;1.70;1.00;;;-2.80;99.90;;;;;;5003322;28;20031;-74
2021/12/25 08:27:32;;;;;;;4.95;1.00;;;-2.40;99.90;;;;;;4976232;28;20103;-75
2021/12/25 08:29:59;;;;;;;2.25;1.38;;;-2.10;99.90;;;;;;4981083;28;20055;-75
2021/12/25 08:32:25;;;;;;;0.98;0.73;;;-1.80;99.90;;;;;;4974122;28;20376;-74
2021/12/25 08:34:52;;;;;;;1.95;0.70;;;-1.50;99.90;;;;;;4975293;28;20051;-74
2021/12/25 08:37:23;;;;;;;5.38;1.00;;;-1.30;99.90;;;;;;4991590;28;20053;-74
2021/12/25 08:39:50;;;;;;;7.28;0.77;;;-1.00;99.90;;;;;;4976911;28;20040;-73
2021/12/25 08:42:16;;;;;;;1.98;0.63;;;-0.70;99.90;;;;;;4985410;28;20035;-73
2021/12/25 08:45:04;;;;;;;3.75;1.02;;;-0.60;99.90;;;;;;4983886;28;20073;-74
2021/12/25 08:47:34;;;;;;;5.30;0.75;;;-0.40;99.90;;;;;;4982480;28;20066;-74
2021/12/25 08:50:06;;;;;;;10.30;0.80;;;-0.40;99.90;;;;;;4985978;28;20023;-74
2021/12/25 08:52:31;;;;;;;2.60;1.73;;;-0.40;99.90;;;;;;4985395;28;20105;-75
2021/12/25 08:54:57;;;;;;;3.35;0.80;;;-0.60;99.90;;;;;;4985807;28;20093;-74
2021/12/25 08:57:23;;;;;;;6.32;1.10;;;-0.70;99.90;;;;;;5000635;28;20126;-74
2021/12/25 08:59:51;;;;;;;3.40;0.85;;;-0.90;99.90;;;;;;4985353;28;20030;-74
2021/12/25 09:02:19;;;;;;;8.57;0.90;;;-1.00;99.90;;;;;;4985811;28;20023;-74
2021/12/25 09:04:47;;;;;;;1.55;0.88;;;-1.10;99.90;;;;;;4982378;28;20027;-73
2021/12/25 09:07:13;;;;;;;14.77;1.58;;;-1.10;99.90;;;;;;4980714;28;20051;-74
2021/12/25 09:09:40;;;;;;;2.50;0.93;;;-1.20;99.90;;;;;;4980129;28;20030;-74
2021/12/25 09:12:08;;;;;;;4.85;1.27;;;-1.30;99.90;;;;;;5000547;28;20062;-74
2021/12/25 09:14:34;;;;;;;3.13;1.10;;;-1.20;99.90;;;;;;4988705;28;20027;-74
2021/12/25 09:17:00;;;;;;;2.80;1.33;;;-1.00;99.90;;;;;;4988756;28;20041;-75
2021/12/25 09:19:26;;;;;;;1.48;0.85;;;-0.60;99.90;;;;;;4989191;28;20057;-74
2021/12/25 09:21:51;;;;;;;2.28;1.08;;;-0.40;99.90;;;;;;4988760;28;20030;-74
2021/12/25 09:24:17;;;;;;;2.20;1.00;;;-0.10;99.90;;;;;;4988993;28;20077;-74
2021/12/25 09:26:43;;;;;;;1.58;0.85;;;0.10;99.90;;;;;;4988732;28;20463;-74
2021/12/25 09:29:09;;;;;;;2.85;0.93;;;0.30;99.90;;;;;;4984872;28;20082;-74
2021/12/25 09:31:34;;;;;;;1.25;0.70;;;0.40;99.90;;;;;;4987566;28;20051;-74
2021/12/25 09:34:02;;;;;;;2.13;0.70;;;0.50;99.90;;;;;;5003415;28;20490;-74
2021/12/25 09:36:29;;;;;;;7.95;0.77;;;0.50;99.90;;;;;;4987960;28;20030;-74
2021/12/25 09:38:55;;;;;;;0.68;0.40;;;0.70;99.90;;;;;;4981782;28;20027;-74
2021/12/25 09:41:21;;;;;;;3.78;1.08;;;0.90;99.90;;;;;;4979203;28;20037;-74
2021/12/25 09:43:48;;;;;;;1.33;0.70;;;1.10;99.90;;;;;;4995694;28;20113;-74
2021/12/25 09:46:15;;;;;;;3.97;1.05;;;1.30;99.90;;;;;;4987811;28;20027;-74
2021/12/25 09:48:41;;;;;;;1.75;0.88;;;1.60;99.90;;;;;;4987598;28;20070;-74
2021/12/25 09:51:07;;;;;;;1.67;0.60;;;1.70;99.90;;;;;;4987660;28;20031;-74
2021/12/25 09:53:34;;;;;;;1.67;0.52;;;1.80;99.90;;;;;;4987891;28;20050;-75
2021/12/25 09:56:02;;;;;;;7.28;1.05;;;1.90;99.90;;;;;;4994497;28;20035;-75
2021/12/25 09:58:29;;;;;;;3.55;0.75;;;2.20;99.90;;;;;;4998709;28;20038;-76
2021/12/25 10:00:57;;;;;;;1.75;0.80;;;2.40;99.90;;;;;;4986496;28;20027;-76
2021/12/25 10:03:23;;;;;;;2.00;1.00;;;2.40;99.90;;;;;;4985939;28;20034;-75
2021/12/25 10:05:52;;;;;;;3.53;1.27;;;2.50;99.90;;;;;;5002086;28;20126;-75
2021/12/25 10:08:25;;;;;;;2.40;0.68;;;2.60;99.90;;;;;;4986686;28;20030;-76
2021/12/25 10:11:01;;;;;;;2.72;1.30;;;2.70;99.90;;;;;;4983379;28;20173;-76
2021/12/25 10:16:45;;;;;;;1.48;0.88;;;3.10;99.90;;;;;;4621535;28;20053;-75
2021/12/25 10:19:23;;;;;;;4.15;1.45;;;3.50;99.90;;;;;;5008821;28;20038;-74
2021/12/25 10:22:04;;;;;;;7.10;1.42;;;3.70;99.90;;;;;;4996793;28;20061;-75
2021/12/25 10:24:30;;;;;;;3.45;0.82;;;4.10;99.90;;;;;;5018746;28;20057;-75
2021/12/25 10:27:20;;;;;;;3.80;1.42;;;4.40;99.90;;;;;;5026955;28;20041;-75
2021/12/25 10:29:58;;;;;;;2.13;0.68;;;4.90;99.90;;;;;;5025988;28;20025;-75
2021/12/25 10:32:25;;;;;;;1.02;0.70;;;5.10;99.90;;;;;;5018785;28;20029;-74
2021/12/25 10:34:54;;;;;;;1.58;1.05;;;5.10;99.90;;;;;;5045463;28;20416;-75
2021/12/25 10:37:22;;;;;;;1.75;0.63;;;5.20;99.90;;;;;;5007004;28;20378;-76
2021/12/25 10:39:49;;;;;;;1.00;0.68;;;5.20;99.90;;;;;;5022691;28;20056;-74
2021/12/25 10:42:23;;;;;;;2.50;0.93;;;5.10;99.90;;;;;;5025736;28;20041;-75
2021/12/25 10:44:55;;;;;;;;;;;5.10;99.90;;;;;;5005546;28;20474;-76
2021/12/25 10:47:25;;;;;;;;;;;5.00;99.90;;;;;;5008249;28;20363;-75
2021/12/25 10:49:55;;;;;;;;;;;5.00;99.90;;;;;;5025285;28;19921;-76
2021/12/25 10:52:25;;;;;;;;;;;5.10;99.90;;;;;;5024968;28;19932;-76
2021/12/25 10:54:53;;;;;;;;;;;5.10;99.90;;;;;;5025817;28;19971;-76
2021/12/25 10:57:39;;;;;;;;;;;5.60;99.90;;;;;;5008455;28;19905;-76
2021/12/25 11:00:06;;;;;;;;;;;5.90;99.90;;;;;;5011003;28;19910;-73
2021/12/25 11:02:40;;;;;;;;;;;5.80;99.90;;;;;;5026393;28;19912;-75
2021/12/25 11:05:18;;;;;;;;;;;6.00;99.90;;;;;;5026469;28;19920;-76
2021/12/25 11:07:47;;;;;;;;;;;6.30;99.90;;;;;;5007870;28;19924;-75
2021/12/25 11:10:17;;;;;;;;;;;6.60;99.90;;;;;;5008944;28;19905;-76
2021/12/25 11:12:43;;;;;;;;;;;7.10;99.90;;;;;;5007648;28;19906;-75
2021/12/25 11:15:09;;;;;;;;;;;7.40;99.90;;;;;;5011548;28;19913;-75
2021/12/25 11:17:37;;;;;;;;;;;7.70;99.90;;;;;;5055758;28;19913;-75
2021/12/25 11:20:18;;;;;;;;;;;7.90;99.90;;;;;;5056888;28;19909;-76
2021/12/25 11:22:53;;;;;;;;;;;7.70;99.90;;;;;;5066229;28;19928;-76
2021/12/25 11:25:20;;;;;;;;;;;7.70;99.90;;;;;;5062318;28;19911;-76
2021/12/25 11:27:49;;;;;;;;;;;7.80;99.90;;;;;;5054038;28;19920;-76
2021/12/25 11:30:20;;;;;;;;;;;7.80;99.90;;;;;;5045194;28;19921;-76
2021/12/25 11:32:48;;;;;;;;;;;7.90;99.90;;;;;;5049743;28;19932;-76
2021/12/25 11:35:21;;;;;;;;;;;7.90;99.90;;;;;;5050036;28;19908;-76
2021/12/25 11:37:48;;;;;;;;;;;7.80;99.90;;;;;;5035996;28;19911;-75
2021/12/25 11:40:14;;;;;;;;;;;8.00;99.90;;;;;;5064779;28;20359;-76
2021/12/25 11:42:42;;;;;;;;;;;8.10;99.90;;;;;;5047112;28;19924;-77
2021/12/25 11:45:11;;;;;;;;;;;8.40;99.90;;;;;;5061220;28;19919;-76
2021/12/25 11:47:42;;;;;;;;;;;8.50;99.90;;;;;;5064211;28;19913;-75
2021/12/25 11:50:16;;;;;;;;;;;8.50;99.90;;;;;;5054989;28;19976;-76
2021/12/25 11:52:55;;;;;;;;;;;8.60;99.90;;;;;;5046938;28;19967;-76
2021/12/25 11:58:36;;;;;;;;;;;9.20;99.90;;;;;;5045267;28;19916;-75
2021/12/25 12:01:14;;;;;;;;;;;9.40;99.90;;;;;;5055292;28;19912;-75
2021/12/25 12:03:44;;;;;;;;;;;9.80;99.90;;;;;;5044475;28;19990;-75
2021/12/25 12:06:10;;;;;;;;;;;9.90;99.90;;;;;;5044772;28;21091;-76
2021/12/25 12:08:54;;;;;;;;;;;9.80;99.90;;;;;;5026112;28;19917;-76
2021/12/25 12:11:21;;;;;;;;;;;9.80;99.90;;;;;;5055619;28;19908;-76
2021/12/25 12:13:47;;;;;;;;;;;9.60;99.90;;;;;;5044248;28;19926;-75
2021/12/25 12:16:12;;;;;;;;;;;9.60;99.90;;;;;;5040665;28;19921;-76
2021/12/25 12:18:38;;;;;;;;;;;9.70;99.90;;;;;;5044137;28;19955;-75
2021/12/25 12:21:16;;;;;;;;;;;9.60;99.90;;;;;;5023808;28;19909;-74
2021/12/25 12:26:12;;;;;;;;;;;9.20;99.90;;;;;;5043599;28;20348;-74
2021/12/25 12:28:46;;;;;;;;;;;9.00;99.90;;;;;;5043874;28;19916;-78
2021/12/25 12:31:31;;;;;;;;;;;8.70;99.90;;;;;;5022617;28;19935;-74
2021/12/25 12:33:56;;;;;;;;;;;8.60;99.90;;;;;;5032783;28;19916;-77
2021/12/25 12:36:26;;;;;;;;;;;8.40;99.90;;;;;;5038712;28;20357;-75
2021/12/25 12:38:58;;;;;;;;;;;8.20;99.90;;;;;;5036334;28;19905;-76
2021/12/25 12:41:32;;;;;;;;;;;8.00;99.90;;;;;;5038384;28;20376;-76
2021/12/25 12:44:14;;;;;;;;;;;8.30;99.90;;;;;;5044781;28;20367;-74
2021/12/25 12:46:48;;;;;;;;;;;8.70;99.90;;;;;;5046096;28;19959;-76
2021/12/25 12:49:16;;;;;;;;;;;9.10;99.90;;;;;;5042190;28;19905;-75
2021/12/25 12:51:42;;;;;;;;;;;9.50;99.90;;;;;;5031788;28;19910;-75
2021/12/25 12:54:11;;;;;;;;;;;9.20;99.90;;;;;;5036016;28;19920;-75
2021/12/25 12:56:56;;;;;;;;;;;8.40;99.90;;;;;;5010745;28;19909;-76
2021/12/25 12:59:22;;;;;;;;;;;7.50;99.90;;;;;;5045431;28;20253;-76
2021/12/25 13:01:49;;;;;;;;;;;6.50;99.90;;;;;;5048472;28;19909;-76
2021/12/25 13:04:14;;;;;;;;;;;6.00;99.90;;;;;;5048352;28;19913;-75
2021/12/25 13:06:42;;;;;;;;;;;5.40;99.90;;;;;;5048686;28;19921;-77
2021/12/25 13:09:08;;;;;;;;;;;4.90;99.90;;;;;;5030167;28;19905;-74
2021/12/25 13:11:42;;;;;;;;;;;4.40;99.90;;;;;;5030704;28;19905;-74
2021/12/25 13:14:09;;;;;;;;;;;4.10;99.90;;;;;;5048250;28;19952;-74
2021/12/25 13:16:39;;;;;;;;;;;3.90;99.90;;;;;;5047905;28;19992;-75
2021/12/25 13:19:06;;;;;;;;;;;3.60;99.90;;;;;;5047759;28;19919;-75
2021/12/25 13:21:33;;;;;;;;;;;3.40;99.90;;;;;;5014025;28;19909;-75
2021/12/25 13:24:03;;;;;;;;;;;3.10;99.90;;;;;;5030765;28;19948;-75
2021/12/25 13:26:35;;;;;;;;;;;3.00;99.90;;;;;;5042229;28;19905;-75
2021/12/25 13:29:02;;;;;;;;;;;2.90;99.90;;;;;;5035054;28;20333;-75
2021/12/25 13:31:29;;;;;;;;;;;2.90;99.90;;;;;;5023322;28;19906;-74
2021/12/25 13:33:56;;;;;;;;;;;2.80;99.90;;;;;;5031383;28;19968;-74
2021/12/25 13:36:23;;;;;;;;;;;2.50;99.90;;;;;;5046785;28;19958;-74
2021/12/25 13:38:51;;;;;;;;;;;2.40;99.90;;;;;;5047913;28;19905;-76
2021/12/25 13:41:34;;;;;;;;;;;2.20;99.90;;;;;;5048045;28;19982;-75
2021/12/25 13:44:04;;;;;;;;;;;2.10;99.90;;;;;;5029719;28;19905;-74
2021/12/25 13:46:40;;;;;;;;;;;2.00;99.90;;;;;;5039718;28;19909;-76
2021/12/25 13:49:06;;;;;;;;;;;1.80;99.90;;;;;;5027902;28;19991;-74
2021/12/25 13:51:31;;;;;;;;;;;1.60;99.90;;;;;;5027655;28;19906;-75
2021/12/25 13:53:57;;;;;;;;;;;1.50;99.90;;;;;;5027595;28;20392;-73
2021/12/25 13:56:23;;;;;;;;;;;1.50;99.90;;;;;;5034599;28;19910;-75
2021/12/25 13:58:49;;;;;;;;;;;1.40;99.90;;;;;;5035935;28;19904;-74
2021/12/25 14:01:15;;;;;;;;;;;1.40;99.90;;;;;;5025783;28;20431;-73
2021/12/25 14:03:42;;;;;;;;;;;1.30;99.90;;;;;;5046014;28;19975;-74
2021/12/25 14:06:08;;;;;;;;;;;1.30;99.90;;;;;;5047120;28;19914;-74
2021/12/25 14:08:33;;;;;;;;;;;1.30;99.90;;;;;;5045886;28;19917;-75
2021/12/25 14:11:00;;;;;;;;;;;1.30;99.90;;;;;;5047549;28;19952;-74
2021/12/25 14:13:28;;;;;;;;;;;1.20;99.90;;;;;;5047081;28;19905;-75
2021/12/25 14:15:55;;;;;;;;;;;1.20;99.90;;;;;;5032651;28;20384;-76
2021/12/25 14:18:21;;;;;;;;;;;1.10;99.90;;;;;;5047336;28;20038;-74
2021/12/25 14:20:51;;;;;;;;;;;1.20;99.90;;;;;;5051868;28;19909;-75
2021/12/25 14:23:18;;;;;;;;;;;1.30;99.90;;;;;;5062836;28;19905;-74
2021/12/25 14:25:46;;;;;;;;;;;1.30;99.90;;;;;;5062735;28;19909;-75
2021/12/25 14:28:22;;;;;;;;;;;1.30;99.90;;;;;;5046710;28;19917;-73
2021/12/25 14:31:08;;;;;;;;;;;1.20;99.90;;;;;;5044903;28;19968;-74
2021/12/25 14:33:38;;;;;;;;;;;1.10;99.90;;;;;;5046235;28;19907;-74
2021/12/25 14:36:07;;;;;;;;;;;1.10;99.90;;;;;;5059258;28;19909;-75
2021/12/25 14:38:40;;;;;;;;;;;1.00;99.90;;;;;;5044049;28;19951;-74
2021/12/25 14:41:07;;;;;;;;;;;0.90;99.90;;;;;;5046202;28;19947;-73
2021/12/25 14:43:34;;;;;;;;;;;0.80;99.90;;;;;;5047147;28;19919;-75